Station: EBLB - 19/04/2018 09:25Z (il y a 28 minutes)
EBLB 190925Z AUTO 16009KT 9999 NCD 22/03 Q1029 BLU
Vent du 160º - 9 kt
Visibilité > 10 km
Pas de nuages détectés
Température: +22ºC - Point de rosée: +03ºC - QNH: 1029 hPa
Code couleur militaire: BLU (conditions VMC)